sensor_id;sensor_type;location;lat;lon;timestamp;temperature;humidity
29255;DHT22;16277;48.890;2.306;2022-08-03T00:10:46;27.50;89.10
29255;DHT22;16277;48.890;2.306;2022-08-03T00:25:51;27.40;89.70
29255;DHT22;16277;48.890;2.306;2022-08-03T00:40:55;27.20;90.70
29255;DHT22;16277;48.890;2.306;2022-08-03T00:56:00;27.00;90.70
29255;DHT22;16277;48.890;2.306;2022-08-03T01:11:11;26.90;90.60
29255;DHT22;16277;48.890;2.306;2022-08-03T01:26:38;26.80;90.10
29255;DHT22;16277;48.890;2.306;2022-08-03T01:41:48;27.00;90.20
29255;DHT22;16277;48.890;2.306;2022-08-03T01:56:56;26.80;90.30
29255;DHT22;16277;48.890;2.306;2022-08-03T02:12:01;26.70;89.80
29255;DHT22;16277;48.890;2.306;2022-08-03T02:27:09;26.50;90.20
29255;DHT22;16277;48.890;2.306;2022-08-03T02:42:19;26.50;90.30
29255;DHT22;16277;48.890;2.306;2022-08-03T02:57:26;26.60;90.40
29255;DHT22;16277;48.890;2.306;2022-08-03T03:12:32;26.50;90.50
29255;DHT22;16277;48.890;2.306;2022-08-03T03:27:39;26.40;90.70
29255;DHT22;16277;48.890;2.306;2022-08-03T03:42:51;26.30;91.00
29255;DHT22;16277;48.890;2.306;2022-08-03T03:57:55;26.30;91.00
29255;DHT22;16277;48.890;2.306;2022-08-03T04:13:02;26.20;91.20
29255;DHT22;16277;48.890;2.306;2022-08-03T04:28:07;26.20;91.30
29255;DHT22;16277;48.890;2.306;2022-08-03T04:43:33;26.00;91.70
29255;DHT22;16277;48.890;2.306;2022-08-03T04:58:38;26.10;91.70
29255;DHT22;16277;48.890;2.306;2022-08-03T05:13:42;26.10;92.00
29255;DHT22;16277;48.890;2.306;2022-08-03T05:28:47;26.20;95.80
29255;DHT22;16277;48.890;2.306;2022-08-03T05:43:54;26.10;93.00
29255;DHT22;16277;48.890;2.306;2022-08-03T05:58:58;26.20;92.90
29255;DHT22;16277;48.890;2.306;2022-08-03T06:14:23;26.10;92.80
29255;DHT22;16277;48.890;2.306;2022-08-03T06:29:28;26.20;92.70
29255;DHT22;16277;48.890;2.306;2022-08-03T06:44:32;26.30;93.00
29255;DHT22;16277;48.890;2.306;2022-08-03T06:59:37;26.40;92.40
29255;DHT22;16277;48.890;2.306;2022-08-03T07:15:03;26.30;92.10
29255;DHT22;16277;48.890;2.306;2022-08-03T07:30:08;26.60;92.30
29255;DHT22;16277;48.890;2.306;2022-08-03T07:45:13;26.70;91.60
29255;DHT22;16277;48.890;2.306;2022-08-03T08:00:19;26.70;90.90
29255;DHT22;16277;48.890;2.306;2022-08-03T08:15:23;26.80;90.20
29255;DHT22;16277;48.890;2.306;2022-08-03T08:30:28;26.90;88.30
29255;DHT22;16277;48.890;2.306;2022-08-03T08:45:33;26.90;87.10
29255;DHT22;16277;48.890;2.306;2022-08-03T09:00:38;27.10;87.20
29255;DHT22;16277;48.890;2.306;2022-08-03T09:15:42;27.20;86.70
29255;DHT22;16277;48.890;2.306;2022-08-03T09:31:03;27.30;84.90
29255;DHT22;16277;48.890;2.306;2022-08-03T09:46:08;27.50;82.60
29255;DHT22;16277;48.890;2.306;2022-08-03T10:01:12;27.80;79.60
29255;DHT22;16277;48.890;2.306;2022-08-03T10:16:27;27.90;78.70
29255;DHT22;16277;48.890;2.306;2022-08-03T10:31:38;27.90;78.20
29255;DHT22;16277;48.890;2.306;2022-08-03T10:47:00;28.30;75.90
29255;DHT22;16277;48.890;2.306;2022-08-03T11:02:05;28.50;75.00
29255;DHT22;16277;48.890;2.306;2022-08-03T11:17:12;28.60;74.40
29255;DHT22;16277;48.890;2.306;2022-08-03T11:32:51;28.60;74.90
29255;DHT22;16277;48.890;2.306;2022-08-03T11:47:56;29.20;71.40
29255;DHT22;16277;48.890;2.306;2022-08-03T12:03:03;29.00;71.60
29255;DHT22;16277;48.890;2.306;2022-08-03T12:18:16;29.60;67.40
29255;DHT22;16277;48.890;2.306;2022-08-03T12:33:22;29.60;66.40
29255;DHT22;16277;48.890;2.306;2022-08-03T12:48:27;30.50;64.10
29255;DHT22;16277;48.890;2.306;2022-08-03T13:03:40;30.10;68.90
29255;DHT22;16277;48.890;2.306;2022-08-03T13:18:47;30.20;64.90
29255;DHT22;16277;48.890;2.306;2022-08-03T13:33:51;30.70;64.80
29255;DHT22;16277;48.890;2.306;2022-08-03T13:48:56;31.40;59.80
29255;DHT22;16277;48.890;2.306;2022-08-03T14:04:00;32.70;58.30
29255;DHT22;16277;48.890;2.306;2022-08-03T14:19:05;36.40;49.70
29255;DHT22;16277;48.890;2.306;2022-08-03T14:34:10;39.40;43.00
29255;DHT22;16277;48.890;2.306;2022-08-03T14:49:14;40.00;42.10
29255;DHT22;16277;48.890;2.306;2022-08-03T15:04:39;42.00;37.70
29255;DHT22;16277;48.890;2.306;2022-08-03T15:19:43;42.20;38.30
29255;DHT22;16277;48.890;2.306;2022-08-03T15:35:09;42.50;36.60
29255;DHT22;16277;48.890;2.306;2022-08-03T15:50:13;43.40;34.50
29255;DHT22;16277;48.890;2.306;2022-08-03T16:05:17;43.30;33.40
29255;DHT22;16277;48.890;2.306;2022-08-03T16:20:22;40.90;37.70
29255;DHT22;16277;48.890;2.306;2022-08-03T16:35:37;38.40;41.80
29255;DHT22;16277;48.890;2.306;2022-08-03T16:50:42;36.80;41.70
29255;DHT22;16277;48.890;2.306;2022-08-03T17:05:47;35.70;43.60
29255;DHT22;16277;48.890;2.306;2022-08-03T17:20:53;34.80;45.70
29255;DHT22;16277;48.890;2.306;2022-08-03T17:35:58;34.20;46.10
29255;DHT22;16277;48.890;2.306;2022-08-03T17:51:06;33.70;48.70
29255;DHT22;16277;48.890;2.306;2022-08-03T18:06:20;33.40;48.40
29255;DHT22;16277;48.890;2.306;2022-08-03T18:21:31;33.00;48.40
29255;DHT22;16277;48.890;2.306;2022-08-03T18:36:56;32.80;50.60
29255;DHT22;16277;48.890;2.306;2022-08-03T18:52:12;32.40;50.30
29255;DHT22;16277;48.890;2.306;2022-08-03T19:07:25;32.10;51.90
29255;DHT22;16277;48.890;2.306;2022-08-03T19:22:38;31.80;52.20
29255;DHT22;16277;48.890;2.306;2022-08-03T19:38:03;31.70;50.20
29255;DHT22;16277;48.890;2.306;2022-08-03T19:53:11;31.50;50.80
29255;DHT22;16277;48.890;2.306;2022-08-03T20:08:17;31.30;51.60
29255;DHT22;16277;48.890;2.306;2022-08-03T20:23:24;31.10;52.30
29255;DHT22;16277;48.890;2.306;2022-08-03T20:38:40;31.00;53.40
29255;DHT22;16277;48.890;2.306;2022-08-03T20:53:50;31.10;53.10
29255;DHT22;16277;48.890;2.306;2022-08-03T21:09:04;30.60;58.50
29255;DHT22;16277;48.890;2.306;2022-08-03T21:24:13;30.20;62.80
29255;DHT22;16277;48.890;2.306;2022-08-03T21:39:18;30.10;64.00
29255;DHT22;16277;48.890;2.306;2022-08-03T21:54:26;29.80;63.00
29255;DHT22;16277;48.890;2.306;2022-08-03T22:09:34;29.90;64.40
29255;DHT22;16277;48.890;2.306;2022-08-03T22:24:40;29.80;66.10
29255;DHT22;16277;48.890;2.306;2022-08-03T22:39:46;29.60;68.30
29255;DHT22;16277;48.890;2.306;2022-08-03T22:54:51;29.40;69.60
29255;DHT22;16277;48.890;2.306;2022-08-03T23:09:56;28.90;71.50
29255;DHT22;16277;48.890;2.306;2022-08-03T23:25:01;29.00;71.20
29255;DHT22;16277;48.890;2.306;2022-08-03T23:40:08;28.90;71.60
29255;DHT22;16277;48.890;2.306;2022-08-03T23:55:24;29.00;71.20
